sensor_id;sensor_type;location;lat;lon;timestamp;pressure;altitude;pressure_sealevel;temperature;humidity
49949;BME280;35840;45.982;8.890;2022-12-29T00:01:59;99041.75;;;5.28;86.85
49949;BME280;35840;45.982;8.890;2022-12-29T00:04:25;99040.78;;;5.32;86.19
49949;BME280;35840;45.982;8.890;2022-12-29T00:06:52;99034.81;;;5.33;86.19
49949;BME280;35840;45.982;8.890;2022-12-29T00:09:20;99032.50;;;5.24;86.27
49949;BME280;35840;45.982;8.890;2022-12-29T00:11:47;99023.34;;;5.17;85.62
49949;BME280;35840;45.982;8.890;2022-12-29T00:14:13;99019.34;;;5.08;85.60
49949;BME280;35840;45.982;8.890;2022-12-29T00:16:59;99021.00;;;5.11;85.20
49949;BME280;35840;45.982;8.890;2022-12-29T00:19:25;99021.78;;;5.13;85.19
49949;BME280;35840;45.982;8.890;2022-12-29T00:22:13;99020.03;;;5.15;85.05
49949;BME280;35840;45.982;8.890;2022-12-29T00:25:00;99016.75;;;5.10;84.45
49949;BME280;35840;45.982;8.890;2022-12-29T00:27:45;99012.81;;;4.99;85.20
49949;BME280;35840;45.982;8.890;2022-12-29T00:30:35;99002.78;;;4.93;86.23
49949;BME280;35840;45.982;8.890;2022-12-29T00:33:22;99001.81;;;4.97;86.04
49949;BME280;35840;45.982;8.890;2022-12-29T00:38:42;99016.13;;;5.02;85.83
49949;BME280;35840;45.982;8.890;2022-12-29T00:41:30;99013.66;;;4.98;85.58
49949;BME280;35840;45.982;8.890;2022-12-29T00:44:15;99001.06;;;4.94;85.26
49949;BME280;35840;45.982;8.890;2022-12-29T00:46:43;99007.00;;;4.94;86.06
49949;BME280;35840;45.982;8.890;2022-12-29T00:49:12;99006.78;;;5.02;86.96
49949;BME280;35840;45.982;8.890;2022-12-29T00:52:05;99015.13;;;5.07;87.25
49949;BME280;35840;45.982;8.890;2022-12-29T00:54:34;99010.22;;;5.01;87.09
49949;BME280;35840;45.982;8.890;2022-12-29T00:57:02;99018.03;;;4.95;86.84
49949;BME280;35840;45.982;8.890;2022-12-29T00:59:30;98998.66;;;4.89;87.11
49949;BME280;35840;45.982;8.890;2022-12-29T01:01:57;98994.91;;;5.01;87.17
49949;BME280;35840;45.982;8.890;2022-12-29T01:04:25;98999.09;;;5.04;87.75
49949;BME280;35840;45.982;8.890;2022-12-29T01:06:52;98991.13;;;5.16;87.25
49949;BME280;35840;45.982;8.890;2022-12-29T01:09:20;98991.94;;;5.16;87.29
49949;BME280;35840;45.982;8.890;2022-12-29T01:12:07;98989.53;;;5.12;87.15
49949;BME280;35840;45.982;8.890;2022-12-29T01:14:35;98988.69;;;5.11;87.45
49949;BME280;35840;45.982;8.890;2022-12-29T01:17:03;98994.44;;;5.18;87.81
49949;BME280;35840;45.982;8.890;2022-12-29T01:19:31;98988.53;;;5.17;87.36
49949;BME280;35840;45.982;8.890;2022-12-29T01:21:59;98990.41;;;5.11;87.90
49949;BME280;35840;45.982;8.890;2022-12-29T01:24:27;98992.91;;;5.12;87.00
49949;BME280;35840;45.982;8.890;2022-12-29T01:26:54;98982.28;;;4.98;87.90
49949;BME280;35840;45.982;8.890;2022-12-29T01:29:21;99004.66;;;5.18;87.65
49949;BME280;35840;45.982;8.890;2022-12-29T01:31:48;99009.84;;;5.15;87.90
49949;BME280;35840;45.982;8.890;2022-12-29T01:34:17;98999.78;;;5.09;88.06
49949;BME280;35840;45.982;8.890;2022-12-29T01:36:44;99000.69;;;5.08;87.74
49949;BME280;35840;45.982;8.890;2022-12-29T01:39:12;98994.84;;;5.04;88.33
49949;BME280;35840;45.982;8.890;2022-12-29T01:41:39;99001.31;;;5.16;88.17
49949;BME280;35840;45.982;8.890;2022-12-29T01:47:10;99002.09;;;5.18;87.42
49949;BME280;35840;45.982;8.890;2022-12-29T01:49:38;99001.38;;;5.13;87.77
49949;BME280;35840;45.982;8.890;2022-12-29T01:52:07;98997.38;;;5.04;88.74
49949;BME280;35840;45.982;8.890;2022-12-29T01:54:40;98996.38;;;5.10;88.83
49949;BME280;35840;45.982;8.890;2022-12-29T01:57:13;98997.22;;;5.10;89.11
49949;BME280;35840;45.982;8.890;2022-12-29T01:59:49;99009.75;;;5.18;87.92
49949;BME280;35840;45.982;8.890;2022-12-29T02:02:17;98997.97;;;5.14;88.31
49949;BME280;35840;45.982;8.890;2022-12-29T02:04:44;98996.34;;;5.11;88.57
49949;BME280;35840;45.982;8.890;2022-12-29T02:07:19;98992.16;;;5.09;88.69
49949;BME280;35840;45.982;8.890;2022-12-29T02:09:47;98992.81;;;5.15;89.03
49949;BME280;35840;45.982;8.890;2022-12-29T02:12:16;98992.13;;;5.10;89.53
49949;BME280;35840;45.982;8.890;2022-12-29T02:14:44;98990.41;;;5.11;89.48
49949;BME280;35840;45.982;8.890;2022-12-29T02:23:18;98991.03;;;5.19;89.66
49949;BME280;35840;45.982;8.890;2022-12-29T02:26:10;98985.03;;;5.22;89.18
49949;BME280;35840;45.982;8.890;2022-12-29T02:38:00;98996.97;;;5.20;88.55
49949;BME280;35840;45.982;8.890;2022-12-29T02:42:50;98989.53;;;5.12;89.44
49949;BME280;35840;45.982;8.890;2022-12-29T02:48:01;98987.59;;;5.20;88.48
49949;BME280;35840;45.982;8.890;2022-12-29T02:50:36;98987.59;;;5.20;88.39
49949;BME280;35840;45.982;8.890;2022-12-29T02:53:07;98976.53;;;5.21;88.09
49949;BME280;35840;45.982;8.890;2022-12-29T02:55:35;98982.59;;;5.17;88.42
49949;BME280;35840;45.982;8.890;2022-12-29T03:00:46;98978.38;;;5.16;87.87
49949;BME280;35840;45.982;8.890;2022-12-29T03:03:29;98966.59;;;5.12;87.80
49949;BME280;35840;45.982;8.890;2022-12-29T03:11:11;98962.19;;;5.17;88.89
49949;BME280;35840;45.982;8.890;2022-12-29T03:14:21;98962.91;;;5.22;88.62
49949;BME280;35840;45.982;8.890;2022-12-29T03:20:14;98964.84;;;5.14;89.13
49949;BME280;35840;45.982;8.890;2022-12-29T03:22:47;98958.09;;;5.11;88.90
49949;BME280;35840;45.982;8.890;2022-12-29T03:25:35;98960.53;;;5.16;89.46
49949;BME280;35840;45.982;8.890;2022-12-29T03:28:15;98967.13;;;5.23;88.89
49949;BME280;35840;45.982;8.890;2022-12-29T03:30:46;98956.41;;;5.12;89.60
49949;BME280;35840;45.982;8.890;2022-12-29T03:33:20;98963.97;;;5.15;89.36
49949;BME280;35840;45.982;8.890;2022-12-29T03:35:50;98958.25;;;5.07;89.57
49949;BME280;35840;45.982;8.890;2022-12-29T03:40:58;98965.59;;;5.17;89.74
49949;BME280;35840;45.982;8.890;2022-12-29T03:43:28;98960.44;;;5.19;89.02
49949;BME280;35840;45.982;8.890;2022-12-29T03:45:56;98961.38;;;5.16;89.31
49949;BME280;35840;45.982;8.890;2022-12-29T03:48:23;98946.31;;;5.07;90.01
49949;BME280;35840;45.982;8.890;2022-12-29T03:50:53;98945.97;;;5.20;89.94
49949;BME280;35840;45.982;8.890;2022-12-29T03:53:21;98947.03;;;5.12;90.11
49949;BME280;35840;45.982;8.890;2022-12-29T03:55:49;98953.06;;;5.10;90.17
49949;BME280;35840;45.982;8.890;2022-12-29T03:58:16;98942.84;;;5.10;90.12
49949;BME280;35840;45.982;8.890;2022-12-29T04:01:02;98941.13;;;5.12;89.96
49949;BME280;35840;45.982;8.890;2022-12-29T04:03:31;98936.75;;;5.15;90.04
49949;BME280;35840;45.982;8.890;2022-12-29T04:05:58;98930.97;;;5.09;90.57
49949;BME280;35840;45.982;8.890;2022-12-29T04:08:26;98924.84;;;5.16;89.82
49949;BME280;35840;45.982;8.890;2022-12-29T04:10:53;98926.50;;;5.17;90.17
49949;BME280;35840;45.982;8.890;2022-12-29T04:13:22;98925.53;;;5.21;89.79
49949;BME280;35840;45.982;8.890;2022-12-29T04:15:51;98906.41;;;5.08;90.11
49949;BME280;35840;45.982;8.890;2022-12-29T04:18:18;98922.41;;;5.11;90.27
49949;BME280;35840;45.982;8.890;2022-12-29T04:20:45;98924.66;;;5.22;89.95
49949;BME280;35840;45.982;8.890;2022-12-29T04:23:29;98924.72;;;5.21;88.78
49949;BME280;35840;45.982;8.890;2022-12-29T04:25:57;98921.69;;;5.08;89.06
49949;BME280;35840;45.982;8.890;2022-12-29T04:28:25;98921.84;;;5.02;89.29
49949;BME280;35840;45.982;8.890;2022-12-29T04:31:03;98909.81;;;5.07;88.92
49949;BME280;35840;45.982;8.890;2022-12-29T04:33:36;98912.56;;;5.00;88.92
49949;BME280;35840;45.982;8.890;2022-12-29T04:36:03;98912.50;;;5.02;89.60
49949;BME280;35840;45.982;8.890;2022-12-29T04:38:30;98918.28;;;5.07;88.90
49949;BME280;35840;45.982;8.890;2022-12-29T04:40:59;98914.09;;;5.06;88.48
49949;BME280;35840;45.982;8.890;2022-12-29T04:43:28;98915.88;;;5.03;88.54
49949;BME280;35840;45.982;8.890;2022-12-29T04:46:15;98917.66;;;5.00;88.77
49949;BME280;35840;45.982;8.890;2022-12-29T04:48:51;98910.06;;;4.97;89.22
49949;BME280;35840;45.982;8.890;2022-12-29T04:51:33;98922.09;;;4.94;89.16
49949;BME280;35840;45.982;8.890;2022-12-29T04:54:01;98935.56;;;4.97;89.70
49949;BME280;35840;45.982;8.890;2022-12-29T04:56:28;98912.59;;;4.99;88.51
49949;BME280;35840;45.982;8.890;2022-12-29T04:58:56;98922.59;;;5.05;88.43
49949;BME280;35840;45.982;8.890;2022-12-29T05:01:23;98929.97;;;5.16;87.99
49949;BME280;35840;45.982;8.890;2022-12-29T05:03:50;98938.47;;;5.15;86.84
49949;BME280;35840;45.982;8.890;2022-12-29T05:06:18;98929.97;;;5.16;87.45
49949;BME280;35840;45.982;8.890;2022-12-29T05:08:45;98930.97;;;5.10;88.20
49949;BME280;35840;45.982;8.890;2022-12-29T05:11:11;98940.53;;;5.02;88.16
49949;BME280;35840;45.982;8.890;2022-12-29T05:13:38;98933.81;;;4.99;87.01
49949;BME280;35840;45.982;8.890;2022-12-29T05:16:05;98940.78;;;4.93;87.10
49949;BME280;35840;45.982;8.890;2022-12-29T05:18:32;98931.69;;;4.84;87.95
49949;BME280;35840;45.982;8.890;2022-12-29T05:20:59;98931.03;;;4.77;88.69
49949;BME280;35840;45.982;8.890;2022-12-29T05:23:27;98935.19;;;4.80;88.89
49949;BME280;35840;45.982;8.890;2022-12-29T05:25:58;98937.75;;;4.80;89.29
49949;BME280;35840;45.982;8.890;2022-12-29T05:28:30;98934.06;;;4.90;89.78
49949;BME280;35840;45.982;8.890;2022-12-29T05:31:03;98939.00;;;4.96;89.58
49949;BME280;35840;45.982;8.890;2022-12-29T05:33:31;98942.31;;;4.98;89.53
49949;BME280;35840;45.982;8.890;2022-12-29T05:36:08;98940.41;;;5.07;88.35
49949;BME280;35840;45.982;8.890;2022-12-29T05:38:39;98955.56;;;5.11;88.40
49949;BME280;35840;45.982;8.890;2022-12-29T05:41:06;98950.41;;;5.13;88.43
49949;BME280;35840;45.982;8.890;2022-12-29T05:43:45;98945.41;;;5.10;88.70
49949;BME280;35840;45.982;8.890;2022-12-29T05:46:27;98934.47;;;5.06;89.06
49949;BME280;35840;45.982;8.890;2022-12-29T05:49:07;98951.38;;;5.09;88.77
49949;BME280;35840;45.982;8.890;2022-12-29T05:51:46;98949.63;;;5.11;88.68
49949;BME280;35840;45.982;8.890;2022-12-29T05:54:13;98944.00;;;4.99;88.90
49949;BME280;35840;45.982;8.890;2022-12-29T05:56:40;98951.47;;;5.06;88.74
49949;BME280;35840;45.982;8.890;2022-12-29T05:59:08;98946.50;;;5.01;88.80
49949;BME280;35840;45.982;8.890;2022-12-29T06:01:35;98953.00;;;5.11;88.53
49949;BME280;35840;45.982;8.890;2022-12-29T06:04:02;98947.81;;;5.16;88.11
49949;BME280;35840;45.982;8.890;2022-12-29T06:06:30;98947.19;;;5.08;88.46
49949;BME280;35840;45.982;8.890;2022-12-29T06:08:57;98943.09;;;5.02;88.15
49949;BME280;35840;45.982;8.890;2022-12-29T06:11:24;98944.09;;;4.96;88.97
49949;BME280;35840;45.982;8.890;2022-12-29T06:13:54;98944.69;;;5.06;88.79
49949;BME280;35840;45.982;8.890;2022-12-29T06:16:22;98938.00;;;5.02;89.07
49949;BME280;35840;45.982;8.890;2022-12-29T06:18:53;98939.81;;;4.97;88.92
49949;BME280;35840;45.982;8.890;2022-12-29T06:21:21;98944.19;;;4.93;88.78
49949;BME280;35840;45.982;8.890;2022-12-29T06:23:47;98945.75;;;4.97;87.74
49949;BME280;35840;45.982;8.890;2022-12-29T06:26:14;98947.69;;;4.89;88.60
49949;BME280;35840;45.982;8.890;2022-12-29T06:28:42;98940.06;;;4.89;88.66
49949;BME280;35840;45.982;8.890;2022-12-29T06:31:11;98936.69;;;4.87;88.37
49949;BME280;35840;45.982;8.890;2022-12-29T06:33:38;98941.75;;;4.89;88.41
49949;BME280;35840;45.982;8.890;2022-12-29T06:36:05;98944.25;;;4.90;87.62
49949;BME280;35840;45.982;8.890;2022-12-29T06:38:32;98945.38;;;4.80;88.18
49949;BME280;35840;45.982;8.890;2022-12-29T06:40:59;98952.94;;;4.83;88.47
49949;BME280;35840;45.982;8.890;2022-12-29T06:43:44;98942.66;;;4.86;88.96
49949;BME280;35840;45.982;8.890;2022-12-29T06:46:19;98942.66;;;4.86;88.24
49949;BME280;35840;45.982;8.890;2022-12-29T06:48:46;98948.38;;;4.94;87.63
49949;BME280;35840;45.982;8.890;2022-12-29T06:51:13;98943.28;;;4.94;86.94
49949;BME280;35840;45.982;8.890;2022-12-29T06:53:40;98945.06;;;4.92;85.89
49949;BME280;35840;45.982;8.890;2022-12-29T06:56:06;98948.34;;;4.96;86.13
49949;BME280;35840;45.982;8.890;2022-12-29T06:58:33;98950.31;;;4.86;86.52
49949;BME280;35840;45.982;8.890;2022-12-29T07:01:00;98947.22;;;4.75;87.07
49949;BME280;35840;45.982;8.890;2022-12-29T07:03:26;98947.41;;;4.69;87.82
49949;BME280;35840;45.982;8.890;2022-12-29T07:05:53;98948.81;;;4.79;87.27
49949;BME280;35840;45.982;8.890;2022-12-29T07:08:20;98951.44;;;4.76;86.28
49949;BME280;35840;45.982;8.890;2022-12-29T07:10:47;98954.06;;;4.73;85.98
49949;BME280;35840;45.982;8.890;2022-12-29T07:13:14;98962.81;;;4.64;86.31
49949;BME280;35840;45.982;8.890;2022-12-29T07:15:40;98963.97;;;4.51;86.89
49949;BME280;35840;45.982;8.890;2022-12-29T07:18:07;98964.50;;;4.63;87.06
49949;BME280;35840;45.982;8.890;2022-12-29T07:20:34;98970.22;;;4.72;86.93
49949;BME280;35840;45.982;8.890;2022-12-29T07:23:03;98962.03;;;4.60;87.58
49949;BME280;35840;45.982;8.890;2022-12-29T07:25:30;98955.06;;;4.67;87.90
49949;BME280;35840;45.982;8.890;2022-12-29T07:27:57;98958.22;;;4.77;86.98
49949;BME280;35840;45.982;8.890;2022-12-29T07:30:23;98962.50;;;4.75;86.17
49949;BME280;35840;45.982;8.890;2022-12-29T07:32:50;98966.00;;;4.72;86.02
49949;BME280;35840;45.982;8.890;2022-12-29T07:35:17;98968.72;;;4.64;86.57
49949;BME280;35840;45.982;8.890;2022-12-29T07:37:44;98980.66;;;4.62;87.00
49949;BME280;35840;45.982;8.890;2022-12-29T07:40:10;98988.41;;;4.58;86.99
49949;BME280;35840;45.982;8.890;2022-12-29T07:42:37;98990.69;;;4.69;86.97
49949;BME280;35840;45.982;8.890;2022-12-29T07:45:07;98999.06;;;4.74;86.22
49949;BME280;35840;45.982;8.890;2022-12-29T07:47:50;98994.91;;;4.70;86.36
49949;BME280;35840;45.982;8.890;2022-12-29T07:50:16;98988.41;;;4.59;87.04
49949;BME280;35840;45.982;8.890;2022-12-29T07:52:43;98995.88;;;4.65;86.32
49949;BME280;35840;45.982;8.890;2022-12-29T07:55:11;98989.75;;;4.73;87.05
49949;BME280;35840;45.982;8.890;2022-12-29T07:57:37;99008.44;;;4.72;86.58
49949;BME280;35840;45.982;8.890;2022-12-29T08:00:05;98997.56;;;4.67;86.97
49949;BME280;35840;45.982;8.890;2022-12-29T08:02:37;98999.16;;;4.69;87.65
49949;BME280;35840;45.982;8.890;2022-12-29T08:05:05;98990.78;;;4.65;87.53
49949;BME280;35840;45.982;8.890;2022-12-29T08:07:32;98989.88;;;4.68;87.69
49949;BME280;35840;45.982;8.890;2022-12-29T08:09:58;98987.06;;;4.77;87.91
49949;BME280;35840;45.982;8.890;2022-12-29T08:12:25;98991.91;;;4.87;87.43
49949;BME280;35840;45.982;8.890;2022-12-29T08:14:52;98993.38;;;4.95;87.42
49949;BME280;35840;45.982;8.890;2022-12-29T08:17:19;98995.97;;;4.94;87.51
49949;BME280;35840;45.982;8.890;2022-12-29T08:19:45;98988.38;;;4.92;87.74
49949;BME280;35840;45.982;8.890;2022-12-29T08:22:13;98993.41;;;4.94;88.48
49949;BME280;35840;45.982;8.890;2022-12-29T08:24:40;98996.72;;;4.97;88.60
49949;BME280;35840;45.982;8.890;2022-12-29T08:27:07;98999.88;;;5.06;88.76
49949;BME280;35840;45.982;8.890;2022-12-29T08:29:45;99004.69;;;5.16;87.52
49949;BME280;35840;45.982;8.890;2022-12-29T08:32:12;99004.66;;;5.18;87.17
49949;BME280;35840;45.982;8.890;2022-12-29T08:34:39;99007.91;;;5.23;87.36
49949;BME280;35840;45.982;8.890;2022-12-29T08:37:06;99012.06;;;5.26;87.96
49949;BME280;35840;45.982;8.890;2022-12-29T08:39:32;99008.56;;;5.30;87.90
49949;BME280;35840;45.982;8.890;2022-12-29T08:41:59;99005.13;;;5.31;87.58
49949;BME280;35840;45.982;8.890;2022-12-29T08:44:26;99008.34;;;5.38;87.46
49949;BME280;35840;45.982;8.890;2022-12-29T08:46:52;99002.41;;;5.37;87.39
49949;BME280;35840;45.982;8.890;2022-12-29T08:49:19;99006.59;;;5.40;87.40
49949;BME280;35840;45.982;8.890;2022-12-29T08:51:46;99008.88;;;5.49;86.82
49949;BME280;35840;45.982;8.890;2022-12-29T08:54:13;99013.06;;;5.50;87.35
49949;BME280;35840;45.982;8.890;2022-12-29T08:56:40;99011.09;;;5.60;86.94
49949;BME280;35840;45.982;8.890;2022-12-29T08:59:07;99024.59;;;5.63;86.12
49949;BME280;35840;45.982;8.890;2022-12-29T09:01:34;99010.06;;;5.65;85.57
49949;BME280;35840;45.982;8.890;2022-12-29T09:04:03;99001.78;;;5.59;84.76
49949;BME280;35840;45.982;8.890;2022-12-29T09:06:40;99012.56;;;5.67;84.48
49949;BME280;35840;45.982;8.890;2022-12-29T09:09:07;99012.63;;;5.65;84.73
49949;BME280;35840;45.982;8.890;2022-12-29T09:11:34;99025.22;;;5.72;84.81
49949;BME280;35840;45.982;8.890;2022-12-29T09:14:01;99032.22;;;5.65;86.79
49949;BME280;35840;45.982;8.890;2022-12-29T09:16:28;99028.84;;;5.64;85.32
49949;BME280;35840;45.982;8.890;2022-12-29T09:18:55;99030.47;;;5.65;85.12
49949;BME280;35840;45.982;8.890;2022-12-29T09:21:21;99028.03;;;5.62;85.28
49949;BME280;35840;45.982;8.890;2022-12-29T09:23:48;99030.53;;;5.64;84.11
49949;BME280;35840;45.982;8.890;2022-12-29T09:26:15;99027.09;;;5.65;84.49
49949;BME280;35840;45.982;8.890;2022-12-29T09:28:41;99019.34;;;5.68;83.77
49949;BME280;35840;45.982;8.890;2022-12-29T09:31:08;99027.00;;;5.68;83.46
49949;BME280;35840;45.982;8.890;2022-12-29T09:33:35;99021.75;;;5.73;82.30
49949;BME280;35840;45.982;8.890;2022-12-29T09:36:02;99017.56;;;5.72;82.34
49949;BME280;35840;45.982;8.890;2022-12-29T09:38:29;99022.72;;;5.70;82.43
49949;BME280;35840;45.982;8.890;2022-12-29T09:41:04;99007.31;;;5.73;82.18
49949;BME280;35840;45.982;8.890;2022-12-29T09:46:59;99004.47;;;5.82;81.31
49949;BME280;35840;45.982;8.890;2022-12-29T09:49:40;99007.78;;;5.86;81.13
49949;BME280;35840;45.982;8.890;2022-12-29T09:52:14;99006.09;;;5.85;81.22
49949;BME280;35840;45.982;8.890;2022-12-29T09:54:51;99000.88;;;5.88;81.04
49949;BME280;35840;45.982;8.890;2022-12-29T10:00:20;99000.66;;;5.97;80.56
49949;BME280;35840;45.982;8.890;2022-12-29T10:02:51;98995.56;;;5.96;81.06
49949;BME280;35840;45.982;8.890;2022-12-29T10:05:41;99002.31;;;5.98;80.87
49949;BME280;35840;45.982;8.890;2022-12-29T10:10:59;98992.91;;;6.00;80.43
49949;BME280;35840;45.982;8.890;2022-12-29T10:19:07;98985.78;;;6.10;81.46
49949;BME280;35840;45.982;8.890;2022-12-29T10:24:30;98974.31;;;6.22;81.51
49949;BME280;35840;45.982;8.890;2022-12-29T10:26:58;98968.88;;;6.33;80.36
49949;BME280;35840;45.982;8.890;2022-12-29T10:29:36;98973.06;;;6.35;79.67
49949;BME280;35840;45.982;8.890;2022-12-29T10:34:48;98977.34;;;6.33;79.21
49949;BME280;35840;45.982;8.890;2022-12-29T10:39:53;98963.03;;;6.29;79.32
49949;BME280;35840;45.982;8.890;2022-12-29T10:42:36;98967.84;;;6.38;79.39
49949;BME280;35840;45.982;8.890;2022-12-29T10:45:05;98950.84;;;6.37;79.92
49949;BME280;35840;45.982;8.890;2022-12-29T10:47:39;98946.16;;;6.50;80.50
49949;BME280;35840;45.982;8.890;2022-12-29T10:50:12;98957.97;;;6.53;80.12
49949;BME280;35840;45.982;8.890;2022-12-29T10:52:39;98958.09;;;6.50;80.03
49949;BME280;35840;45.982;8.890;2022-12-29T10:55:17;98951.38;;;6.47;80.75
49949;BME280;35840;45.982;8.890;2022-12-29T10:57:46;98939.94;;;6.58;79.26
49949;BME280;35840;45.982;8.890;2022-12-29T11:05:55;98928.94;;;6.55;79.37
49949;BME280;35840;45.982;8.890;2022-12-29T11:08:27;98928.66;;;6.63;77.31
49949;BME280;35840;45.982;8.890;2022-12-29T11:11:00;98926.97;;;6.64;77.64
49949;BME280;35840;45.982;8.890;2022-12-29T11:13:30;98914.19;;;6.64;77.38
49949;BME280;35840;45.982;8.890;2022-12-29T11:16:04;98908.22;;;6.63;76.82
49949;BME280;35840;45.982;8.890;2022-12-29T11:18:34;98904.63;;;6.69;77.55
49949;BME280;35840;45.982;8.890;2022-12-29T11:21:06;98915.22;;;6.83;79.10
49949;BME280;35840;45.982;8.890;2022-12-29T11:23:35;98915.91;;;6.87;80.03
49949;BME280;35840;45.982;8.890;2022-12-29T11:26:14;98912.19;;;6.96;78.04
49949;BME280;35840;45.982;8.890;2022-12-29T11:31:29;98902.47;;;6.82;78.43
49949;BME280;35840;45.982;8.890;2022-12-29T11:33:56;98900.88;;;6.79;78.42
49949;BME280;35840;45.982;8.890;2022-12-29T11:36:24;98894.34;;;6.70;78.54
49949;BME280;35840;45.982;8.890;2022-12-29T11:38:53;98896.81;;;6.74;78.41
49949;BME280;35840;45.982;8.890;2022-12-29T11:41:29;98893.47;;;6.71;78.63
49949;BME280;35840;45.982;8.890;2022-12-29T11:43:59;98892.28;;;6.80;77.13
49949;BME280;35840;45.982;8.890;2022-12-29T11:48:53;98881.97;;;6.83;75.71
49949;BME280;35840;45.982;8.890;2022-12-29T11:51:38;98882.13;;;6.79;76.26
49949;BME280;35840;45.982;8.890;2022-12-29T11:54:05;98877.81;;;6.81;76.47
49949;BME280;35840;45.982;8.890;2022-12-29T11:56:37;98874.47;;;6.79;77.10
49949;BME280;35840;45.982;8.890;2022-12-29T11:59:40;98868.34;;;6.83;76.73
49949;BME280;35840;45.982;8.890;2022-12-29T12:02:39;98868.16;;;6.89;76.74
49949;BME280;35840;45.982;8.890;2022-12-29T12:06:03;98862.91;;;6.92;77.05
49949;BME280;35840;45.982;8.890;2022-12-29T12:08:39;98865.91;;;7.03;77.09
49949;BME280;35840;45.982;8.890;2022-12-29T12:11:23;98851.88;;;7.14;76.87
49949;BME280;35840;45.982;8.890;2022-12-29T12:13:59;98855.84;;;7.21;75.79
49949;BME280;35840;45.982;8.890;2022-12-29T12:19:23;98832.63;;;7.48;74.21
49949;BME280;35840;45.982;8.890;2022-12-29T12:24:55;98828.97;;;7.75;70.59
49949;BME280;35840;45.982;8.890;2022-12-29T12:27:29;98831.34;;;7.80;70.83
49949;BME280;35840;45.982;8.890;2022-12-29T12:30:17;98822.03;;;7.78;70.94
49949;BME280;35840;45.982;8.890;2022-12-29T12:35:18;98817.81;;;7.76;70.20
49949;BME280;35840;45.982;8.890;2022-12-29T12:37:51;98819.88;;;7.89;70.21
49949;BME280;35840;45.982;8.890;2022-12-29T12:40:42;98816.44;;;7.90;71.38
49949;BME280;35840;45.982;8.890;2022-12-29T12:54:09;98808.78;;;8.09;69.25
49949;BME280;35840;45.982;8.890;2022-12-29T13:00:23;98820.03;;;8.05;69.36
49949;BME280;35840;45.982;8.890;2022-12-29T13:11:19;98789.59;;;7.99;72.92
49949;BME280;35840;45.982;8.890;2022-12-29T13:14:04;98788.88;;;7.95;71.87
49949;BME280;35840;45.982;8.890;2022-12-29T13:22:15;98779.69;;;7.91;70.29
49949;BME280;35840;45.982;8.890;2022-12-29T13:25:36;98772.13;;;7.88;70.07
49949;BME280;35840;45.982;8.890;2022-12-29T13:28:20;98771.56;;;7.81;70.06
49949;BME280;35840;45.982;8.890;2022-12-29T13:33:41;98767.28;;;7.82;70.90
49949;BME280;35840;45.982;8.890;2022-12-29T13:39:14;98756.22;;;7.81;71.29
49949;BME280;35840;45.982;8.890;2022-12-29T13:41:49;98760.47;;;7.81;71.63
49949;BME280;35840;45.982;8.890;2022-12-29T13:44:24;98755.44;;;7.79;72.06
49949;BME280;35840;45.982;8.890;2022-12-29T13:46:56;98759.59;;;7.82;71.95
49949;BME280;35840;45.982;8.890;2022-12-29T13:49:26;98750.66;;;7.71;72.47
49949;BME280;35840;45.982;8.890;2022-12-29T13:51:59;98754.03;;;7.72;72.77
49949;BME280;35840;45.982;8.890;2022-12-29T13:57:12;98745.59;;;7.70;72.34
49949;BME280;35840;45.982;8.890;2022-12-29T13:59:50;98743.53;;;7.78;73.52
49949;BME280;35840;45.982;8.890;2022-12-29T14:05:05;98751.16;;;7.80;73.57
49949;BME280;35840;45.982;8.890;2022-12-29T14:08:01;98752.19;;;7.75;74.28
49949;BME280;35840;45.982;8.890;2022-12-29T14:10:37;98747.31;;;7.69;73.67
49949;BME280;35840;45.982;8.890;2022-12-29T14:15:47;98760.09;;;7.69;73.76
49949;BME280;35840;45.982;8.890;2022-12-29T14:18:25;98757.63;;;7.68;73.24
49949;BME280;35840;45.982;8.890;2022-12-29T14:28:38;98760.75;;;7.74;73.15
49949;BME280;35840;45.982;8.890;2022-12-29T14:36:40;98754.38;;;7.64;76.58
49949;BME280;35840;45.982;8.890;2022-12-29T14:39:41;98758.72;;;7.62;77.18
49949;BME280;35840;45.982;8.890;2022-12-29T14:44:47;98761.34;;;7.61;77.15
49949;BME280;35840;45.982;8.890;2022-12-29T14:47:41;98760.38;;;7.63;76.82
49949;BME280;35840;45.982;8.890;2022-12-29T14:50:25;98759.44;;;7.66;77.14
49949;BME280;35840;45.982;8.890;2022-12-29T14:53:04;98759.50;;;7.64;77.06
49949;BME280;35840;45.982;8.890;2022-12-29T14:55:41;98762.94;;;7.63;77.07
49949;BME280;35840;45.982;8.890;2022-12-29T14:58:31;98755.31;;;7.62;76.83
49949;BME280;35840;45.982;8.890;2022-12-29T15:00:59;98763.06;;;7.60;76.59
49949;BME280;35840;45.982;8.890;2022-12-29T15:03:32;98767.34;;;7.59;76.06
49949;BME280;35840;45.982;8.890;2022-12-29T15:06:11;98774.25;;;7.57;75.95
49949;BME280;35840;45.982;8.890;2022-12-29T15:08:45;98776.16;;;7.52;77.77
49949;BME280;35840;45.982;8.890;2022-12-29T15:11:15;98766.25;;;7.45;79.81
49949;BME280;35840;45.982;8.890;2022-12-29T15:13:44;98765.13;;;7.52;80.00
49949;BME280;35840;45.982;8.890;2022-12-29T15:16:25;98763.38;;;7.52;79.15
49949;BME280;35840;45.982;8.890;2022-12-29T15:18:53;98765.25;;;7.49;78.37
49949;BME280;35840;45.982;8.890;2022-12-29T15:21:29;98764.66;;;7.42;78.07
49949;BME280;35840;45.982;8.890;2022-12-29T15:23:56;98768.34;;;7.35;78.32
49949;BME280;35840;45.982;8.890;2022-12-29T15:26:36;98770.31;;;7.28;79.75
49949;BME280;35840;45.982;8.890;2022-12-29T15:29:04;98780.31;;;7.34;81.05
49949;BME280;35840;45.982;8.890;2022-12-29T15:31:31;98774.28;;;7.35;80.36
49949;BME280;35840;45.982;8.890;2022-12-29T15:34:09;98781.91;;;7.37;79.90
49949;BME280;35840;45.982;8.890;2022-12-29T15:36:38;98791.44;;;7.33;79.62
49949;BME280;35840;45.982;8.890;2022-12-29T15:39:19;98764.75;;;7.18;80.41
49949;BME280;35840;45.982;8.890;2022-12-29T15:41:53;98789.97;;;7.28;81.51
49949;BME280;35840;45.982;8.890;2022-12-29T15:44:38;98789.13;;;7.27;81.62
49949;BME280;35840;45.982;8.890;2022-12-29T15:47:12;98783.13;;;7.28;81.90
49949;BME280;35840;45.982;8.890;2022-12-29T15:49:42;98779.13;;;7.21;81.28
49949;BME280;35840;45.982;8.890;2022-12-29T15:52:10;98790.09;;;7.24;81.46
49949;BME280;35840;45.982;8.890;2022-12-29T15:54:42;98782.47;;;7.23;81.59
49949;BME280;35840;45.982;8.890;2022-12-29T15:57:22;98795.63;;;7.14;81.18